This is the latest recevied weather packets stored in our database for station/object WX7FGZ-7. If no packets are shown the sender has not sent any weather packets the latest 10 day(s).
| Time | Temp. | Humidity | Pressure | Rain* | Wind** | Luminosity | Snow |
|---|---|---|---|---|---|---|---|
| 1777652078 | 18.33° C | 25% | 1019 hPa | 0 mm | - | - | - |
| 1777651872 | 18.33° C | 25% | 1019 hPa | 0 mm | - | - | - |
| 1777650864 | 17.22° C | 27% | 1018.9 hPa | 0 mm | - | - | - |
| 1777650685 | 17.22° C | 27% | 1018.9 hPa | 0 mm | - | - | - |
| 1777650537 | 16.67° C | 27% | 1019 hPa | 0 mm | - | - | - |
| 1777650372 | 16.67° C | 27% | 1019 hPa | 0 mm | - | - | - |
| 1777650257 | 16.11° C | 29% | 1018.8 hPa | 0 mm | - | - | - |
| 1777650084 | 16.11° C | 29% | 1018.8 hPa | 0 mm | - | - | - |
| 1777649370 | 14.44° C | 31% | 1018.8 hPa | 0 mm | - | - | - |
| 1777649172 | 14.44° C | 31% | 1018.8 hPa | 0 mm | - | - | - |
| 1777647348 | 11.67° C | 36% | 1018.5 hPa | 0 mm | - | - | - |
| 1777647263 | 11.67° C | 36% | 1018.8 hPa | 0 mm | - | - | - |
| 1777647032 | 11.67° C | 36% | 1018.8 hPa | 0 mm | - | - | - |
| 1777646727 | 11.67° C | 34% | 1018.8 hPa | 0 mm | - | - | - |
| 1777646671 | 11.67° C | 34% | 1018.7 hPa | 0 mm | - | - | - |
| 1777646425 | 11.67° C | 34% | 1018.7 hPa | 0 mm | - | - | - |
| 1777646295 | 12.22° C | 33% | 1018.8 hPa | 0 mm | - | - | - |
| 1777646125 | 12.22° C | 33% | 1018.8 hPa | 0 mm | - | - | - |
| 1777645832 | 12.22° C | 32% | 1018.7 hPa | 0 mm | - | - | - |
| 1777645500 | 12.78° C | 36% | 1018.4 hPa | 0 mm | - | - | - |
| 1777645226 | 12.22° C | 36% | 1018.4 hPa | 0 mm | - | - | - |
| 1777645225 | 12.78° C | 36% | 1018.4 hPa | 0 mm | - | - | - |
| 1777645193 | 12.22° C | 36% | 1018.4 hPa | 0 mm | - | - | - |
| 1777644925 | 12.22° C | 36% | 1018.4 hPa | 0 mm | - | - | - |
| 1777644343 | 11.67° C | 37% | 1018.3 hPa | 0 mm | - | - | - |
* Rain latest hour (hover to see other rain measurements)
** Current wind speed in m/s (hover to see current wind gust speed)